Time;durP1;ratioP1;P1;durP2;ratioP2;P2;SDS_P1;SDS_P2;PMS_P1;PMS_P2;Temp;Humidity;BMP_temperature;BMP_pressure;BME280_temperature;BME280_humidity;BME280_pressure;Samples;Min_cycle;Max_cycle;Signal;HPM_P1;HPM_P2
2023/09/20 00:01:51;;;;;;;0.40;0.20;;;;;;;17.92;92.71;99965.00;5029320;28;20427;-51
2023/09/20 00:04:19;;;;;;;0.40;0.20;;;;;;;18.01;92.27;99964.41;5026171;28;20459;-51
2023/09/20 00:06:46;;;;;;;0.40;0.20;;;;;;;17.94;92.29;99960.38;5035349;28;20479;-52
2023/09/20 00:09:14;;;;;;;0.40;0.20;;;;;;;17.90;92.82;99965.09;5025141;28;20444;-52
2023/09/20 00:11:43;;;;;;;0.40;0.20;;;;;;;18.01;93.05;99965.28;5029146;28;20457;-51
2023/09/20 00:14:09;;;;;;;0.40;0.20;;;;;;;18.00;92.54;99960.00;5026627;28;20458;-52
2023/09/20 00:16:36;;;;;;;0.40;0.20;;;;;;;18.04;92.57;99966.91;5021909;28;20503;-51
2023/09/20 00:19:02;;;;;;;0.40;0.20;;;;;;;18.08;92.73;99962.19;5025275;28;20543;-51
2023/09/20 00:21:29;;;;;;;0.40;0.20;;;;;;;17.75;94.15;99963.38;5032644;28;20451;-52
2023/09/20 00:23:55;;;;;;;0.40;0.20;;;;;;;17.81;94.07;99959.44;5035191;28;20782;-52
2023/09/20 00:26:22;;;;;;;0.40;0.20;;;;;;;17.67;94.33;99962.97;5022184;28;20468;-51
2023/09/20 00:28:49;;;;;;;0.40;0.20;;;;;;;17.66;94.81;99959.41;5024769;28;20448;-51
2023/09/20 00:31:16;;;;;;;0.40;0.20;;;;;;;17.71;95.00;99961.88;5032898;28;20454;-52
2023/09/20 00:33:43;;;;;;;0.40;0.20;;;;;;;17.82;94.81;99961.16;5024230;28;20452;-51
2023/09/20 00:36:19;;;;;;;0.40;0.20;;;;;;;17.79;94.25;99951.47;5028506;28;20543;-51
2023/09/20 00:38:47;;;;;;;0.40;0.20;;;;;;;17.76;94.14;99952.53;5027767;28;20486;-52
2023/09/20 00:41:15;;;;;;;0.40;0.20;;;;;;;17.83;93.72;99947.66;5021714;28;20968;-52
2023/09/20 00:43:41;;;;;;;0.40;0.20;;;;;;;17.83;93.77;99950.34;5022000;28;20452;-53
2023/09/20 00:46:09;;;;;;;0.40;0.20;;;;;;;17.85;93.57;99952.91;5021865;28;20475;-52
2023/09/20 00:48:38;;;;;;;0.40;0.20;;;;;;;17.86;94.06;99950.13;5034572;28;20473;-52
2023/09/20 00:51:09;;;;;;;0.40;0.20;;;;;;;17.86;93.63;99951.97;5022674;28;20483;-51
2023/09/20 00:53:37;;;;;;;0.40;0.20;;;;;;;17.78;94.69;99957.81;5028247;28;20451;-51
2023/09/20 00:56:05;;;;;;;0.40;0.20;;;;;;;17.82;94.52;99951.31;5026263;28;20453;-51
2023/09/20 00:58:35;;;;;;;0.40;0.20;;;;;;;17.74;94.73;99950.91;5027413;28;20487;-52
2023/09/20 01:01:04;;;;;;;6.03;4.00;;;;;;;17.70;95.40;99949.38;5024564;28;20452;-52
2023/09/20 01:03:35;;;;;;;0.40;0.20;;;;;;;17.73;94.39;99938.44;5021474;28;20448;-51
2023/09/20 01:06:04;;;;;;;0.40;0.20;;;;;;;17.57;95.01;99948.41;5034644;28;20471;-52
2023/09/20 01:08:32;;;;;;;0.40;0.20;;;;;;;17.52;95.54;99948.66;5025209;28;20960;-51
2023/09/20 01:11:00;;;;;;;0.40;0.20;;;;;;;17.46;96.00;99946.38;5025971;28;20547;-52
2023/09/20 01:13:27;;;;;;;0.40;0.20;;;;;;;17.52;95.77;99945.97;5034199;28;20978;-52
2023/09/20 01:15:53;;;;;;;0.40;0.20;;;;;;;17.55;95.71;99948.50;5022585;28;20540;-51
2023/09/20 01:18:20;;;;;;;0.40;0.30;;;;;;;17.55;95.62;99943.13;5019837;28;20494;-52
2023/09/20 01:20:47;;;;;;;0.40;0.20;;;;;;;17.47;95.99;99946.28;5022562;28;20825;-51
2023/09/20 01:23:14;;;;;;;0.40;0.20;;;;;;;17.47;96.49;99943.59;5033121;28;20538;-52
2023/09/20 01:25:42;;;;;;;0.40;0.20;;;;;;;17.37;97.06;99937.06;5034225;28;20448;-52
2023/09/20 01:28:10;;;;;;;0.40;0.20;;;;;;;17.32;97.55;99941.00;5020590;28;20565;-52
2023/09/20 01:30:38;;;;;;;0.40;0.20;;;;;;;17.18;97.83;99934.66;5021728;28;20445;-52
2023/09/20 01:33:09;;;;;;;0.40;0.20;;;;;;;17.24;97.65;99932.53;5027814;28;20480;-52
2023/09/20 01:35:37;;;;;;;0.40;0.20;;;;;;;17.14;97.90;99938.50;5027581;28;20471;-52
2023/09/20 01:38:07;;;;;;;0.40;0.20;;;;;;;17.13;98.03;99939.47;5021039;28;20586;-51
2023/09/20 01:40:34;;;;;;;0.40;0.20;;;;;;;17.20;97.57;99931.88;5020674;28;20495;-52
2023/09/20 01:43:06;;;;;;;0.40;0.20;;;;;;;17.00;98.23;99934.94;5026014;28;20460;-51
2023/09/20 01:45:36;;;;;;;0.40;0.20;;;;;;;16.96;98.43;99928.84;5014283;28;20918;-51
2023/09/20 01:48:10;;;;;;;0.40;0.20;;;;;;;17.12;98.23;99936.84;5023285;28;20468;-53
2023/09/20 01:50:37;;;;;;;0.40;0.20;;;;;;;17.05;98.06;99930.13;5020494;28;20819;-51
2023/09/20 01:53:08;;;;;;;0.40;0.20;;;;;;;17.16;97.13;99930.34;5027136;28;20447;-52
2023/09/20 01:55:42;;;;;;;0.40;0.20;;;;;;;17.08;97.94;99921.88;5015896;28;20451;-52
2023/09/20 01:58:12;;;;;;;0.40;0.20;;;;;;;17.11;97.85;99919.00;5025868;28;20498;-51
2023/09/20 02:00:40;;;;;;;0.40;0.20;;;;;;;17.06;97.72;99915.75;5020120;28;21017;-52
2023/09/20 02:03:18;;;;;;;0.40;0.20;;;;;;;17.00;98.51;99924.19;5020532;28;20431;-52
2023/09/20 02:05:47;;;;;;;0.40;0.20;;;;;;;16.97;98.44;99916.28;5022467;28;20490;-51
2023/09/20 02:08:15;;;;;;;0.40;0.20;;;;;;;16.94;98.29;99921.84;5031104;28;20916;-52
2023/09/20 02:10:42;;;;;;;0.40;0.20;;;;;;;16.85;99.16;99923.25;5023610;28;20463;-51
2023/09/20 02:13:09;;;;;;;0.40;0.20;;;;;;;16.77;99.17;99925.56;5030168;28;20460;-51
2023/09/20 02:15:36;;;;;;;0.40;0.20;;;;;;;16.67;99.39;99927.91;5013609;28;20452;-51
2023/09/20 02:18:05;;;;;;;0.40;0.20;;;;;;;16.95;98.28;99931.63;5016412;28;20467;-52
2023/09/20 02:20:39;;;;;;;0.40;0.20;;;;;;;16.87;98.42;99926.75;5022846;28;20540;-52
2023/09/20 02:23:12;;;;;;;0.40;0.20;;;;;;;17.04;97.54;99925.72;5031278;28;20454;-51
2023/09/20 02:25:40;;;;;;;0.40;0.20;;;;;;;16.99;97.45;99939.41;5033216;28;20455;-51
2023/09/20 02:28:08;;;;;;;0.40;0.20;;;;;;;17.10;97.15;99934.25;5019909;28;20467;-51
2023/09/20 02:30:37;;;;;;;0.40;0.20;;;;;;;17.17;96.79;99929.38;5020291;28;20457;-52
2023/09/20 02:33:06;;;;;;;0.40;0.20;;;;;;;17.15;97.02;99932.16;5020205;28;20455;-51
2023/09/20 02:35:33;;;;;;;0.40;0.20;;;;;;;17.18;97.09;99920.34;5019867;28;20449;-51
2023/09/20 02:38:04;;;;;;;0.40;0.20;;;;;;;17.26;96.44;99925.25;5025579;28;20472;-52
2023/09/20 02:40:31;;;;;;;0.40;0.20;;;;;;;17.12;97.01;99918.03;5026384;28;20447;-52
2023/09/20 02:42:58;;;;;;;0.40;0.20;;;;;;;17.16;97.28;99912.41;5021272;28;20932;-51
2023/09/20 02:45:33;;;;;;;0.40;0.20;;;;;;;17.18;97.33;99920.34;5032579;28;20448;-51
2023/09/20 02:48:04;;;;;;;0.40;0.20;;;;;;;17.04;97.90;99914.97;5032815;28;20815;-52
2023/09/20 02:50:31;;;;;;;0.40;0.20;;;;;;;17.12;97.23;99910.84;5015886;28;20448;-52
2023/09/20 02:52:58;;;;;;;0.40;0.20;;;;;;;17.08;97.53;99908.44;5020190;28;20510;-52
2023/09/20 02:55:27;;;;;;;0.40;0.20;;;;;;;16.99;97.83;99901.81;5026161;28;20475;-52
2023/09/20 02:57:54;;;;;;;0.40;0.20;;;;;;;16.90;98.20;99899.72;5026989;23;20551;-50
2023/09/20 03:00:27;;;;;;;0.40;0.20;;;;;;;16.78;98.98;99905.81;5030361;28;20455;-50
2023/09/20 03:02:56;;;;;;;0.40;0.20;;;;;;;16.66;99.49;99902.00;5032647;28;20454;-50
2023/09/20 03:05:34;;;;;;;0.50;0.30;;;;;;;16.65;99.32;99900.28;5031263;28;20859;-50
2023/09/20 03:08:04;;;;;;;0.40;0.20;;;;;;;16.77;98.87;99896.03;5032353;28;20508;-50
2023/09/20 03:10:33;;;;;;;0.40;0.20;;;;;;;16.67;99.63;99887.66;5032391;28;20505;-50
2023/09/20 03:12:59;;;;;;;0.40;0.20;;;;;;;16.76;99.18;99891.63;5032587;28;20459;-49
2023/09/20 03:15:27;;;;;;;0.40;0.20;;;;;;;16.60;99.51;99888.97;5032791;28;20832;-49
2023/09/20 03:18:02;;;;;;;0.40;0.20;;;;;;;16.67;99.60;99887.66;5032188;28;20471;-50
2023/09/20 03:20:33;;;;;;;0.40;0.20;;;;;;;16.69;99.56;99891.13;5033139;28;20794;-50
2023/09/20 03:23:05;;;;;;;0.40;0.20;;;;;;;16.69;99.66;99891.13;5038667;28;20857;-50
2023/09/20 03:25:38;;;;;;;0.40;0.20;;;;;;;16.58;99.48;99875.66;5038787;28;20938;-50
2023/09/20 03:28:08;;;;;;;0.40;0.20;;;;;;;16.69;99.68;99880.38;5039218;28;20529;-50
2023/09/20 03:30:37;;;;;;;0.40;0.20;;;;;;;16.84;99.04;99875.91;5038765;28;20483;-50
2023/09/20 03:33:05;;;;;;;0.40;0.20;;;;;;;16.58;99.65;99882.81;5025906;28;20454;-50
2023/09/20 03:35:33;;;;;;;0.40;0.20;;;;;;;16.65;99.27;99883.31;5038853;28;20801;-50
2023/09/20 03:38:01;;;;;;;0.40;0.20;;;;;;;16.63;98.90;99880.72;5038805;28;20507;-50
2023/09/20 03:40:28;;;;;;;0.40;0.20;;;;;;;16.58;99.03;99881.00;5038609;28;20493;-50
2023/09/20 03:42:54;;;;;;;0.40;0.20;;;;;;;16.51;99.49;99884.16;5039106;28;20478;-50
2023/09/20 03:45:22;;;;;;;0.40;0.20;;;;;;;16.51;99.33;99887.69;5038503;28;20447;-49
2023/09/20 03:47:53;;;;;;;0.40;0.20;;;;;;;16.44;99.21;99889.00;5038333;28;20988;-50
2023/09/20 03:50:21;;;;;;;0.40;0.20;;;;;;;16.51;99.76;99890.38;5038726;28;20452;-50
2023/09/20 03:52:49;;;;;;;0.40;0.20;;;;;;;16.52;99.84;99885.88;5038522;28;20960;-50
2023/09/20 03:55:16;;;;;;;0.40;0.20;;;;;;;16.40;99.63;99891.97;5038606;28;20462;-50
2023/09/20 03:57:43;;;;;;;0.40;0.20;;;;;;;16.55;100.00;99891.91;5038443;28;20483;-50
2023/09/20 04:00:28;;;;;;;0.40;0.20;;;;;;;16.42;100.00;99890.03;5038171;28;20486;-50
2023/09/20 04:02:56;;;;;;;0.40;0.20;;;;;;;16.56;99.84;99887.41;5038807;28;20493;-49
2023/09/20 04:05:24;;;;;;;0.40;0.20;;;;;;;16.41;100.00;99888.31;5038435;28;20478;-50
2023/09/20 04:08:11;;;;;;;0.40;0.20;;;;;;;16.52;100.00;99885.88;5038415;28;20498;-49
2023/09/20 04:10:38;;;;;;;0.40;0.20;;;;;;;16.51;100.00;99881.47;5038561;28;20530;-49
2023/09/20 04:13:05;;;;;;;0.40;0.20;;;;;;;16.58;100.00;99883.69;5038089;28;20839;-50
2023/09/20 04:15:33;;;;;;;0.40;0.20;;;;;;;16.43;100.00;99881.91;5038442;28;20451;-50
2023/09/20 04:18:08;;;;;;;0.40;0.20;;;;;;;16.47;100.00;99874.56;5038359;28;20589;-49
2023/09/20 04:20:35;;;;;;;0.40;0.20;;;;;;;16.53;100.00;99875.03;5038476;28;20493;-50
2023/09/20 04:23:02;;;;;;;0.40;0.20;;;;;;;16.80;98.78;99877.06;5037931;28;20798;-50
2023/09/20 04:25:29;;;;;;;0.40;0.20;;;;;;;16.54;100.00;99875.91;5038285;28;20457;-49
2023/09/20 04:27:55;;;;;;;0.40;0.20;;;;;;;16.44;100.00;99870.22;5038210;28;21030;-50
2023/09/20 04:30:22;;;;;;;0.40;0.20;;;;;;;16.41;100.00;99874.91;5038335;28;20458;-49
2023/09/20 04:32:48;;;;;;;0.40;0.20;;;;;;;16.43;100.00;99868.47;5036485;28;20451;-49
2023/09/20 04:35:15;;;;;;;1.47;1.17;;;;;;;16.52;100.00;99870.63;5035101;28;20454;-49
2023/09/20 04:37:42;;;;;;;0.40;0.20;;;;;;;16.51;100.00;99870.72;5034824;28;20557;-49
2023/09/20 04:40:09;;;;;;;0.40;0.20;;;;;;;16.47;100.00;99864.69;5034954;28;21006;-50
2023/09/20 04:42:36;;;;;;;0.40;0.20;;;;;;;16.43;100.00;99856.88;5035078;28;20451;-50
2023/09/20 04:45:12;;;;;;;0.40;0.20;;;;;;;16.38;100.00;99862.53;5035080;28;20451;-50
2023/09/20 04:47:39;;;;;;;0.40;0.20;;;;;;;16.43;100.00;99868.47;5034860;28;20474;-51
2023/09/20 04:50:07;;;;;;;0.40;0.20;;;;;;;16.54;100.00;99868.72;5034925;28;20454;-49
2023/09/20 04:52:33;;;;;;;0.40;0.20;;;;;;;16.61;100.00;99871.91;5035133;28;20845;-50
2023/09/20 04:55:00;;;;;;;0.40;0.20;;;;;;;16.60;100.00;99864.81;5034522;28;20928;-52
2023/09/20 04:57:27;;;;;;;0.40;0.20;;;;;;;16.63;100.00;99863.75;5034531;28;20834;-50
2023/09/20 04:59:53;;;;;;;0.40;0.20;;;;;;;16.56;100.00;99860.56;5034494;28;20493;-50
2023/09/20 05:02:22;;;;;;;0.40;0.20;;;;;;;16.59;100.00;99861.28;5034777;28;20454;-49
2023/09/20 05:04:49;;;;;;;0.40;0.20;;;;;;;16.76;100.00;99859.41;5034613;28;20915;-50
2023/09/20 05:07:16;;;;;;;0.40;0.20;;;;;;;16.69;100.00;99858.03;5034850;28;20551;-52
2023/09/20 05:09:44;;;;;;;0.40;0.20;;;;;;;16.73;100.00;99857.78;5033356;28;20486;-50
2023/09/20 05:12:11;;;;;;;0.40;0.20;;;;;;;16.75;100.00;99847.81;5034427;28;20947;-50
2023/09/20 05:14:37;;;;;;;0.40;0.20;;;;;;;16.84;99.73;99851.75;5034255;28;20948;-51
2023/09/20 05:17:04;;;;;;;0.40;0.20;;;;;;;16.79;99.83;99856.53;5034350;28;20467;-50
2023/09/20 05:19:30;;;;;;;0.40;0.20;;;;;;;16.86;99.56;99860.59;5033974;28;20513;-50
2023/09/20 05:21:58;;;;;;;0.40;0.20;;;;;;;16.78;100.00;99854.81;5034397;28;20447;-50
2023/09/20 05:24:25;;;;;;;0.40;0.20;;;;;;;16.76;99.88;99864.78;5034233;28;20531;-50
2023/09/20 05:26:52;;;;;;;0.40;0.20;;;;;;;16.69;100.00;99853.53;5034150;28;20558;-51
2023/09/20 05:29:18;;;;;;;0.40;0.20;;;;;;;16.66;100.00;99852.84;5034084;28;20454;-50
2023/09/20 05:31:45;;;;;;;0.40;0.20;;;;;;;16.57;100.00;99859.63;5034066;28;20457;-50
2023/09/20 05:34:11;;;;;;;0.40;0.20;;;;;;;16.63;100.00;99853.88;5033854;28;20459;-50
2023/09/20 05:36:37;;;;;;;0.40;0.20;;;;;;;16.56;100.00;99861.44;5033999;28;20453;-50
2023/09/20 05:39:06;;;;;;;0.40;0.20;;;;;;;16.61;100.00;99860.31;5033757;28;21054;-50
2023/09/20 05:41:34;;;;;;;0.40;0.20;;;;;;;16.58;100.00;99861.34;5033867;28;20944;-50
2023/09/20 05:44:00;;;;;;;0.40;0.20;;;;;;;16.63;100.00;99871.81;5033286;28;20463;-50
2023/09/20 05:46:27;;;;;;;0.40;0.20;;;;;;;16.67;100.00;99870.66;5033632;28;20455;-50
2023/09/20 05:48:53;;;;;;;0.40;0.20;;;;;;;16.74;100.00;99872.06;5033965;28;20455;-50
2023/09/20 05:51:20;;;;;;;0.40;0.20;;;;;;;16.63;100.00;99878.03;5033650;28;20502;-52
2023/09/20 05:53:48;;;;;;;0.40;0.20;;;;;;;16.76;100.00;99871.00;5033633;28;20501;-50
2023/09/20 05:56:18;;;;;;;0.40;0.20;;;;;;;16.82;100.00;99876.00;5033912;28;20461;-50
2023/09/20 05:58:45;;;;;;;0.40;0.20;;;;;;;16.83;100.00;99871.50;5033159;28;20478;-50
2023/09/20 06:01:12;;;;;;;0.40;0.20;;;;;;;16.90;100.00;99872.00;5033335;28;20447;-50
2023/09/20 06:03:39;;;;;;;0.40;0.20;;;;;;;16.90;100.00;99877.38;5033520;28;20447;-51
2023/09/20 06:06:07;;;;;;;0.40;0.20;;;;;;;16.83;100.00;99877.72;5033634;28;20539;-50
2023/09/20 06:08:35;;;;;;;0.40;0.20;;;;;;;16.53;100.00;99876.84;5033273;28;20490;-50
2023/09/20 06:11:04;;;;;;;0.40;0.20;;;;;;;16.68;100.00;99875.09;5033336;28;20478;-49
2023/09/20 06:13:32;;;;;;;0.40;0.20;;;;;;;16.79;100.00;99880.69;5032937;28;20462;-53
2023/09/20 06:16:05;;;;;;;0.40;0.20;;;;;;;16.98;100.00;99875.91;5033331;28;20454;-52
2023/09/20 06:18:31;;;;;;;0.40;0.20;;;;;;;17.00;100.00;99874.03;5020673;28;20510;-53
2023/09/20 06:21:00;;;;;;;0.40;0.20;;;;;;;17.04;100.00;99882.75;5033076;28;20854;-53
2023/09/20 06:23:26;;;;;;;0.40;0.20;;;;;;;17.16;100.00;99877.47;5032935;28;20947;-52
2023/09/20 06:25:53;;;;;;;0.40;0.20;;;;;;;17.01;100.00;99881.13;5032922;28;20908;-53
2023/09/20 06:28:20;;;;;;;0.40;0.20;;;;;;;17.17;100.00;99878.34;5032990;28;20981;-52
2023/09/20 06:30:47;;;;;;;0.40;0.20;;;;;;;17.30;100.00;99875.75;5033111;28;20526;-52
2023/09/20 06:33:14;;;;;;;0.40;0.20;;;;;;;17.45;100.00;99867.59;5033140;28;20534;-52
2023/09/20 06:35:41;;;;;;;0.40;0.20;;;;;;;17.52;99.91;99865.34;5032864;28;20448;-51
2023/09/20 06:38:09;;;;;;;0.40;0.20;;;;;;;17.61;99.72;99870.16;5032775;28;20468;-53
2023/09/20 06:40:41;;;;;;;0.40;0.20;;;;;;;17.58;99.54;99875.72;5032596;28;20468;-53
2023/09/20 06:43:08;;;;;;;0.40;0.20;;;;;;;17.75;98.74;99874.66;5031567;28;20479;-53
2023/09/20 06:45:35;;;;;;;0.40;0.20;;;;;;;17.73;99.13;99866.69;5032683;28;20483;-53
2023/09/20 06:48:02;;;;;;;0.40;0.20;;;;;;;17.72;99.23;99858.75;5032706;28;20555;-52
2023/09/20 06:50:30;;;;;;;0.40;0.20;;;;;;;17.80;99.55;99861.78;5032554;28;20451;-52
2023/09/20 06:52:57;;;;;;;0.40;0.20;;;;;;;17.82;100.00;99859.88;5032585;28;20433;-52
2023/09/20 06:55:25;;;;;;;1.60;1.50;;;;;;;17.73;99.60;99866.69;5031728;28;20448;-53
2023/09/20 06:57:52;;;;;;;0.40;0.20;;;;;;;17.77;100.00;99857.47;5032253;28;20453;-53
2023/09/20 07:00:38;;;;;;;0.40;0.20;;;;;;;17.81;100.00;99860.81;5032013;28;20458;-53
2023/09/20 07:03:05;;;;;;;0.40;0.20;;;;;;;17.80;100.00;99858.22;5032597;28;20473;-53
2023/09/20 07:05:32;;;;;;;0.40;0.20;;;;;;;17.88;99.83;99859.47;5032303;28;20542;-52
2023/09/20 07:07:59;;;;;;;0.40;0.20;;;;;;;17.91;99.08;99851.19;5032134;28;20443;-52
2023/09/20 07:10:29;;;;;;;0.40;0.20;;;;;;;17.89;98.54;99855.81;5032559;28;20429;-52
2023/09/20 07:12:55;;;;;;;0.40;0.20;;;;;;;18.03;98.87;99861.13;5032221;28;20438;-52
2023/09/20 07:15:25;;;;;;;0.40;0.20;;;;;;;18.21;97.50;99864.41;5032463;28;20487;-53
2023/09/20 07:18:11;;;;;;;0.40;0.20;;;;;;;18.60;96.38;99858.16;5032197;28;20482;-53
2023/09/20 07:20:42;;;;;;;0.40;0.20;;;;;;;18.39;95.82;99865.03;5032371;28;20487;-53
2023/09/20 07:23:15;;;;;;;0.40;0.20;;;;;;;18.46;95.83;99857.38;5032270;28;20426;-53
2023/09/20 07:25:43;;;;;;;0.40;0.20;;;;;;;18.87;94.80;99865.34;5032344;28;20448;-53
2023/09/20 07:28:09;;;;;;;0.40;0.20;;;;;;;18.86;94.93;99869.88;5031892;28;20951;-52
2023/09/20 07:30:46;;;;;;;0.40;0.20;;;;;;;18.69;95.49;99870.19;5032062;28;20419;-53
2023/09/20 07:33:18;;;;;;;0.40;0.20;;;;;;;18.81;95.73;99877.41;5019751;28;20428;-53
2023/09/20 07:35:48;;;;;;;0.40;0.20;;;;;;;18.77;94.52;99873.19;5032216;28;20444;-53
2023/09/20 07:38:26;;;;;;;0.40;0.20;;;;;;;18.71;94.03;99876.31;5032142;28;20477;-53
2023/09/20 07:41:13;;;;;;;0.40;0.20;;;;;;;18.74;93.87;99876.09;5031758;28;21023;-53
2023/09/20 07:43:47;;;;;;;0.53;0.53;;;;;;;18.81;93.14;99863.94;5032009;28;20450;-53
2023/09/20 07:46:15;;;;;;;0.40;0.20;;;;;;;18.96;92.81;99870.09;5032094;28;20447;-53
2023/09/20 07:48:48;;;;;;;0.40;0.20;;;;;;;19.02;92.50;99860.72;5031916;28;20449;-53
2023/09/20 07:51:23;;;;;;;0.40;0.20;;;;;;;19.04;91.54;99858.75;5031949;28;20439;-53
2023/09/20 07:53:53;;;;;;;0.40;0.20;;;;;;;19.17;91.77;99856.94;5031744;28;20443;-53
2023/09/20 07:56:21;;;;;;;0.40;0.20;;;;;;;19.18;91.73;99858.66;5032190;28;20471;-53
2023/09/20 07:58:48;;;;;;;0.40;0.20;;;;;;;19.41;90.67;99857.00;5031524;28;20482;-53
2023/09/20 08:01:21;;;;;;;0.40;0.30;;;;;;;19.67;89.48;99861.41;5031687;28;20491;-52
2023/09/20 08:03:52;;;;;;;0.40;0.20;;;;;;;19.94;88.66;99853.13;5031756;28;20941;-53
2023/09/20 08:06:22;;;;;;;0.40;0.20;;;;;;;20.01;87.31;99864.31;5031722;28;20926;-53
2023/09/20 08:08:49;;;;;;;0.40;0.20;;;;;;;20.50;85.99;99861.50;5022253;28;20935;-53
2023/09/20 08:11:16;;;;;;;0.40;0.20;;;;;;;20.31;86.56;99858.47;5035563;28;20461;-53
2023/09/20 08:13:49;;;;;;;0.40;0.20;;;;;;;20.46;86.65;99862.75;5035504;28;20808;-53
2023/09/20 08:16:15;;;;;;;0.40;0.20;;;;;;;20.59;85.43;99863.53;5035403;28;20450;-53
2023/09/20 08:21:29;;;;;;;0.40;0.20;;;;;;;20.90;82.86;99855.72;5035269;28;20983;-53
2023/09/20 09:00:24;;;;;;;0.40;0.20;;;;;;;21.71;80.11;99824.91;5034532;28;20574;-51
2023/09/20 09:02:54;;;;;;;0.50;0.20;;;;;;;21.93;79.40;99816.75;5035053;28;20509;-50
2023/09/20 09:05:23;;;;;;;0.40;0.30;;;;;;;22.34;78.30;99813.28;5034911;28;20414;-50
2023/09/20 09:07:50;;;;;;;0.40;0.20;;;;;;;22.28;77.81;99826.47;5034907;28;20760;-50
2023/09/20 09:10:18;;;;;;;0.40;0.30;;;;;;;22.35;76.96;99820.44;5034526;28;20484;-50
2023/09/20 09:12:44;;;;;;;0.50;0.20;;;;;;;22.60;76.79;99813.75;5034981;28;20487;-51
2023/09/20 09:15:12;;;;;;;0.40;0.20;;;;;;;22.76;76.64;99824.16;5034707;28;20856;-50
2023/09/20 09:17:39;;;;;;;0.50;0.20;;;;;;;22.80;76.54;99824.72;5034653;28;20450;-49
2023/09/20 09:20:10;;;;;;;0.40;0.20;;;;;;;22.97;74.96;99825.00;5033453;28;20491;-50
2023/09/20 09:22:41;;;;;;;0.40;0.20;;;;;;;23.35;75.08;99818.06;5034194;28;20422;-50
2023/09/20 09:25:16;;;;;;;0.50;0.20;;;;;;;23.18;74.50;99819.56;5034300;28;20879;-50
2023/09/20 09:27:43;;;;;;;0.40;0.20;;;;;;;23.19;73.63;99810.41;5034288;28;20442;-49
2023/09/20 09:30:12;;;;;;;0.50;0.30;;;;;;;23.56;73.34;99812.53;5034264;28;20419;-50
2023/09/20 09:32:40;;;;;;;0.40;0.20;;;;;;;23.87;73.03;99818.81;5033931;28;20539;-50
2023/09/20 09:35:07;;;;;;;0.40;0.20;;;;;;;23.46;73.18;99809.81;5034099;28;20430;-50
2023/09/20 09:37:35;;;;;;;0.50;0.20;;;;;;;23.50;73.73;99804.97;5033349;28;20979;-50
2023/09/20 09:40:04;;;;;;;0.50;0.20;;;;;;;23.85;72.94;99813.53;5034280;28;20476;-51
2023/09/20 09:42:31;;;;;;;0.40;0.20;;;;;;;24.20;71.81;99795.81;5033497;28;20529;-51
2023/09/20 09:44:58;;;;;;;0.50;0.30;;;;;;;23.93;71.99;99793.78;5033611;28;20459;-50
2023/09/20 09:47:25;;;;;;;0.50;0.20;;;;;;;23.66;72.66;99793.59;5033669;28;20499;-50
2023/09/20 09:49:52;;;;;;;0.50;0.20;;;;;;;23.63;72.54;99795.59;5033912;28;20460;-50
2023/09/20 09:52:26;;;;;;;0.47;0.20;;;;;;;24.19;72.15;99789.53;5033563;28;20582;-50
2023/09/20 09:54:53;;;;;;;0.50;0.20;;;;;;;24.41;69.88;99776.69;5034043;28;20422;-50
2023/09/20 09:57:20;;;;;;;0.50;0.20;;;;;;;24.49;69.58;99788.53;5033853;28;20489;-51
2023/09/20 09:59:47;;;;;;;0.50;0.20;;;;;;;24.44;70.51;99776.41;5033718;28;20458;-51
2023/09/20 10:02:17;;;;;;;0.40;0.20;;;;;;;24.19;71.90;99778.66;5033681;28;20437;-51
2023/09/20 10:04:52;;;;;;;0.50;0.20;;;;;;;24.05;70.48;99772.81;5033759;28;20484;-51
2023/09/20 10:07:22;;;;;;;0.50;0.20;;;;;;;24.11;70.67;99766.78;5033433;28;20473;-51
2023/09/20 10:09:51;;;;;;;0.40;0.30;;;;;;;24.44;70.18;99770.97;5033408;28;20509;-51
2023/09/20 10:12:20;;;;;;;0.40;0.20;;;;;;;24.25;70.16;99766.34;5033191;28;20456;-51
2023/09/20 10:14:47;;;;;;;0.40;0.20;;;;;;;24.20;69.31;99760.50;5033152;28;20472;-51
2023/09/20 10:17:17;;;;;;;0.50;0.30;;;;;;;24.31;68.31;99771.25;5033235;28;20559;-51
2023/09/20 10:19:43;;;;;;;0.47;0.20;;;;;;;24.83;68.17;99765.44;5033043;28;20821;-51
2023/09/20 10:22:10;;;;;;;0.50;0.20;;;;;;;25.02;66.15;99755.38;5031816;28;20487;-51
2023/09/20 10:24:50;;;;;;;0.40;0.20;;;;;;;25.01;66.33;99767.25;5032975;28;20456;-51
2023/09/20 10:27:17;;;;;;;0.40;0.20;;;;;;;25.16;64.60;99767.63;5032924;28;20474;-52
2023/09/20 10:30:16;;;;;;;0.40;0.20;;;;;;;25.57;64.46;99766.25;5032684;28;20895;-51
2023/09/20 10:32:47;;;;;;;0.50;0.20;;;;;;;25.88;62.87;99758.63;4989308;28;20465;-51
2023/09/20 10:35:19;;;;;;;0.50;0.20;;;;;;;26.07;63.21;99754.06;5033152;28;20458;-51
2023/09/20 10:38:02;;;;;;;0.50;0.20;;;;;;;26.15;60.95;99748.66;5032866;28;20474;-52
2023/09/20 10:40:55;;;;;;;0.50;0.20;;;;;;;26.64;60.26;99755.41;5032553;28;20488;-52
2023/09/20 10:43:43;;;;;;;0.50;0.20;;;;;;;26.54;59.54;99765.53;5033180;28;20451;-51
2023/09/20 10:46:37;;;;;;;0.50;0.20;;;;;;;26.50;57.96;99758.72;5032830;28;20542;-52
2023/09/20 10:49:05;;;;;;;0.50;0.20;;;;;;;26.37;59.37;99748.22;5032275;28;20971;-51
2023/09/20 10:51:49;;;;;;;0.50;0.30;;;;;;;26.31;58.99;99756.13;5032739;28;20479;-51
2023/09/20 10:54:26;;;;;;;0.50;0.30;;;;;;;26.60;58.48;99750.44;5032926;28;21002;-51
2023/09/20 10:57:04;;;;;;;0.50;0.20;;;;;;;26.14;56.71;99752.41;5032323;28;20529;-52
2023/09/20 10:59:34;;;;;;;0.50;0.20;;;;;;;26.31;55.64;99750.66;5031427;28;20446;-51
2023/09/20 11:02:08;;;;;;;0.50;0.20;;;;;;;26.12;56.37;99741.66;5032389;28;20530;-51
2023/09/20 11:04:37;;;;;;;0.50;0.20;;;;;;;26.01;57.49;99741.91;5032625;28;20448;-51
2023/09/20 11:07:04;;;;;;;0.50;0.20;;;;;;;25.83;57.92;99747.34;5032364;28;20506;-51
2023/09/20 11:09:33;;;;;;;0.50;0.20;;;;;;;25.63;57.17;99737.56;5032210;28;20475;-51
2023/09/20 11:12:06;;;;;;;0.50;0.20;;;;;;;25.64;57.77;99728.41;5032059;28;21058;-52
2023/09/20 11:14:41;;;;;;;0.50;0.30;;;;;;;25.71;59.19;99734.13;5032586;28;20471;-51
2023/09/20 11:17:12;;;;;;;0.50;0.20;;;;;;;25.61;58.71;99728.69;5032477;28;20471;-51
2023/09/20 11:19:39;;;;;;;0.50;0.30;;;;;;;25.86;60.03;99724.38;5032317;28;20475;-51
2023/09/20 11:22:06;;;;;;;0.50;0.20;;;;;;;25.85;58.84;99718.09;5032090;28;20465;-51
2023/09/20 11:24:36;;;;;;;0.50;0.20;;;;;;;25.94;58.50;99717.16;5032287;28;20451;-51
2023/09/20 11:27:02;;;;;;;0.50;0.20;;;;;;;26.11;57.89;99720.88;5032481;28;20533;-51
2023/09/20 11:29:29;;;;;;;0.50;0.20;;;;;;;25.97;57.37;99716.00;5032120;28;20426;-54
2023/09/20 11:31:57;;;;;;;0.50;0.20;;;;;;;25.52;57.81;99707.84;5032165;28;20450;-54
2023/09/20 11:34:25;;;;;;;0.50;0.20;;;;;;;25.75;57.13;99709.13;5032136;28;21028;-53
2023/09/20 11:36:53;;;;;;;0.50;0.20;;;;;;;25.85;57.72;99707.19;5032225;28;20533;-53
2023/09/20 11:39:30;;;;;;;0.50;0.20;;;;;;;25.60;57.97;99703.34;5031903;28;20937;-54
2023/09/20 11:42:01;;;;;;;0.40;0.20;;;;;;;25.71;57.26;99707.75;5032781;28;20497;-54
2023/09/20 11:44:28;;;;;;;0.50;0.20;;;;;;;25.74;57.92;99701.13;5035917;28;20454;-54
2023/09/20 11:46:57;;;;;;;0.50;0.20;;;;;;;25.95;57.40;99702.53;5035821;28;20554;-53
2023/09/20 11:49:26;;;;;;;0.50;0.20;;;;;;;25.78;56.95;99702.53;5036111;28;20426;-54
2023/09/20 11:51:53;;;;;;;0.50;0.20;;;;;;;26.04;56.65;99697.13;5036001;28;20474;-54
2023/09/20 11:54:37;;;;;;;0.50;0.20;;;;;;;26.31;55.98;99693.44;5036010;28;20880;-54
2023/09/20 11:57:04;;;;;;;0.50;0.20;;;;;;;26.06;56.23;99689.69;5035944;28;20487;-54
2023/09/20 11:59:40;;;;;;;0.50;0.20;;;;;;;25.57;58.22;99689.19;5035607;28;20479;-54
2023/09/20 12:02:08;;;;;;;0.50;0.23;;;;;;;25.61;56.31;99687.84;5035833;28;20497;-54
2023/09/20 12:04:35;;;;;;;0.50;0.20;;;;;;;25.53;57.13;99690.50;5035868;28;20447;-54
2023/09/20 12:07:02;;;;;;;0.50;0.20;;;;;;;25.54;58.36;99684.06;5035569;28;20471;-54
2023/09/20 12:09:29;;;;;;;0.50;0.20;;;;;;;25.47;57.55;99691.09;5035517;28;20872;-54
2023/09/20 12:11:55;;;;;;;0.50;0.20;;;;;;;25.24;59.39;99683.41;5035281;28;20462;-54
2023/09/20 12:14:22;;;;;;;0.50;0.27;;;;;;;25.29;58.91;99677.50;5035623;28;20459;-54
2023/09/20 12:16:49;;;;;;;0.50;0.20;;;;;;;25.58;57.88;99685.44;5035556;28;20848;-54
2023/09/20 12:19:17;;;;;;;0.50;0.30;;;;;;;25.72;58.33;99665.03;5035594;28;20467;-54
2023/09/20 12:21:44;;;;;;;0.50;0.20;;;;;;;25.67;57.00;99665.47;5035425;28;20464;-54